Temryuk, Russia
Current Conditions -  °F | °C
As of 4:30 PM on Thursday 30 Oct 2014 (Local Time) from URKA Reporting Station
Clear Clear  
Wind Chill: 57°   Ceiling: Unl
Heat Index: 57°   Visibility: 6mi
Dew Point: 43°   Wind: 18mph
Humidity: 59%   Direction: 70°ENE
Pressure: 29.97"   Gusts: 25mph
Location:  45.27°N, 37.38°E
Report Text: URKA 301330Z 07008G11MPS CAVOK 14/06 Q1015 NOSIG RMKQFE757/1010 SC070
Loading
Personal Weather Stations






























Interactive Weather Map
Tropical Storm Tracking
New forecast layout! Learn more

10-Day Weather Forecast

Advertisements
Track Severe Weather on mobile